sensor_id;sensor_type;location;lat;lon;timestamp;pressure;altitude;pressure_sealevel;temperature;humidity
46392;BME280;32098;49.448;7.904;2024-03-02T00:00:36;96938.34;;;5.68;79.86
46392;BME280;32098;49.448;7.904;2024-03-02T00:03:03;96925.81;;;5.63;79.55
46392;BME280;32098;49.448;7.904;2024-03-02T00:05:30;96936.53;;;5.68;79.78
46392;BME280;32098;49.448;7.904;2024-03-02T00:07:58;96929.47;;;5.62;79.29
46392;BME280;32098;49.448;7.904;2024-03-02T00:10:26;96927.09;;;5.54;79.51
46392;BME280;32098;49.448;7.904;2024-03-02T00:12:56;96908.47;;;5.49;79.24
46392;BME280;32098;49.448;7.904;2024-03-02T00:15:41;96930.34;;;5.56;78.67
46392;BME280;32098;49.448;7.904;2024-03-02T00:18:12;96931.44;;;5.49;79.65
46392;BME280;32098;49.448;7.904;2024-03-02T00:20:40;96931.31;;;5.37;79.83
46392;BME280;32098;49.448;7.904;2024-03-02T00:23:08;96930.97;;;5.27;80.05
46392;BME280;32098;49.448;7.904;2024-03-02T00:25:40;96934.00;;;5.30;80.55
46392;BME280;32098;49.448;7.904;2024-03-02T00:28:14;96922.81;;;5.35;80.08
46392;BME280;32098;49.448;7.904;2024-03-02T00:30:56;96923.81;;;5.34;80.31
46392;BME280;32098;49.448;7.904;2024-03-02T00:33:26;96915.91;;;5.34;80.29
46392;BME280;32098;49.448;7.904;2024-03-02T00:35:54;96914.72;;;5.30;80.12
46392;BME280;32098;49.448;7.904;2024-03-02T00:38:21;96922.06;;;5.28;80.74
46392;BME280;32098;49.448;7.904;2024-03-02T00:40:49;96921.00;;;5.29;80.00
46392;BME280;32098;49.448;7.904;2024-03-02T00:45:54;96924.47;;;5.29;80.14
46392;BME280;32098;49.448;7.904;2024-03-02T00:48:21;96915.09;;;5.33;79.80
46392;BME280;32098;49.448;7.904;2024-03-02T00:50:52;96910.63;;;5.34;79.68
46392;BME280;32098;49.448;7.904;2024-03-02T00:53:23;96899.31;;;5.27;79.73
46392;BME280;32098;49.448;7.904;2024-03-02T00:55:53;96916.94;;;5.33;79.35
46392;BME280;32098;49.448;7.904;2024-03-02T00:58:19;96914.50;;;5.31;79.73
46392;BME280;32098;49.448;7.904;2024-03-02T01:00:46;96901.75;;;5.28;79.74
46392;BME280;32098;49.448;7.904;2024-03-02T01:03:13;96908.78;;;5.34;79.73
46392;BME280;32098;49.448;7.904;2024-03-02T01:05:43;96906.13;;;5.41;79.93
46392;BME280;32098;49.448;7.904;2024-03-02T01:08:10;96913.16;;;5.47;79.09
46392;BME280;32098;49.448;7.904;2024-03-02T01:10:37;96918.44;;;5.47;79.18
46392;BME280;32098;49.448;7.904;2024-03-02T01:13:04;96915.44;;;5.43;78.87
46392;BME280;32098;49.448;7.904;2024-03-02T01:15:30;96909.34;;;5.43;79.14
46392;BME280;32098;49.448;7.904;2024-03-02T01:17:57;96915.28;;;5.38;79.15
46392;BME280;32098;49.448;7.904;2024-03-02T01:20:25;96911.81;;;5.38;79.14
46392;BME280;32098;49.448;7.904;2024-03-02T01:22:52;96916.28;;;5.37;79.20
46392;BME280;32098;49.448;7.904;2024-03-02T01:25:18;96909.22;;;5.31;78.77
46392;BME280;32098;49.448;7.904;2024-03-02T01:27:45;96910.91;;;5.26;78.91
46392;BME280;32098;49.448;7.904;2024-03-02T01:30:16;96904.59;;;5.27;79.51
46392;BME280;32098;49.448;7.904;2024-03-02T01:32:43;96900.94;;;5.28;78.88
46392;BME280;32098;49.448;7.904;2024-03-02T01:35:09;96904.56;;;5.33;78.80
46392;BME280;32098;49.448;7.904;2024-03-02T01:37:37;96902.78;;;5.27;79.00
46392;BME280;32098;49.448;7.904;2024-03-02T01:40:03;96900.53;;;5.31;79.38
46392;BME280;32098;49.448;7.904;2024-03-02T01:42:39;96906.38;;;5.33;78.79
46392;BME280;32098;49.448;7.904;2024-03-02T01:45:06;96890.41;;;5.28;78.22
46392;BME280;32098;49.448;7.904;2024-03-02T01:47:34;96901.47;;;5.36;78.77
46392;BME280;32098;49.448;7.904;2024-03-02T01:50:01;96902.13;;;5.32;78.61
46392;BME280;32098;49.448;7.904;2024-03-02T01:52:28;96899.28;;;5.33;78.38
46392;BME280;32098;49.448;7.904;2024-03-02T01:54:54;96895.59;;;5.34;78.87
46392;BME280;32098;49.448;7.904;2024-03-02T01:57:21;96896.00;;;5.38;79.23
46392;BME280;32098;49.448;7.904;2024-03-02T01:59:48;96898.88;;;5.30;79.15
46392;BME280;32098;49.448;7.904;2024-03-02T02:02:17;96890.41;;;5.28;79.28
46392;BME280;32098;49.448;7.904;2024-03-02T02:04:43;96890.81;;;5.25;79.74
46392;BME280;32098;49.448;7.904;2024-03-02T02:07:10;96883.31;;;5.22;80.12
46392;BME280;32098;49.448;7.904;2024-03-02T02:09:37;96890.81;;;5.25;80.07
46392;BME280;32098;49.448;7.904;2024-03-02T02:12:04;96888.44;;;5.17;80.73
46392;BME280;32098;49.448;7.904;2024-03-02T02:14:33;96881.56;;;5.16;81.41
46392;BME280;32098;49.448;7.904;2024-03-02T02:17:00;96880.53;;;5.17;81.58
46392;BME280;32098;49.448;7.904;2024-03-02T02:19:26;96871.81;;;5.16;82.42
46392;BME280;32098;49.448;7.904;2024-03-02T02:21:53;96873.81;;;5.21;81.96
46392;BME280;32098;49.448;7.904;2024-03-02T02:24:20;96872.09;;;5.33;81.72
46392;BME280;32098;49.448;7.904;2024-03-02T02:26:47;96871.19;;;5.39;81.49
46392;BME280;32098;49.448;7.904;2024-03-02T02:29:13;96871.69;;;5.29;81.84
46392;BME280;32098;49.448;7.904;2024-03-02T02:31:41;96867.00;;;5.31;82.38
46392;BME280;32098;49.448;7.904;2024-03-02T02:34:08;96867.78;;;5.38;81.80
46392;BME280;32098;49.448;7.904;2024-03-02T02:36:38;96862.28;;;5.40;82.34
46392;BME280;32098;49.448;7.904;2024-03-02T02:39:07;96844.31;;;5.30;82.04
46392;BME280;32098;49.448;7.904;2024-03-02T02:41:37;96864.63;;;5.48;82.38
46392;BME280;32098;49.448;7.904;2024-03-02T02:44:04;96855.25;;;5.52;81.84
46392;BME280;32098;49.448;7.904;2024-03-02T02:46:31;96856.06;;;5.53;82.19
46392;BME280;32098;49.448;7.904;2024-03-02T02:48:58;96854.25;;;5.53;81.55
46392;BME280;32098;49.448;7.904;2024-03-02T02:51:24;96856.28;;;5.51;81.59
46392;BME280;32098;49.448;7.904;2024-03-02T02:53:54;96850.72;;;5.59;81.42
46392;BME280;32098;49.448;7.904;2024-03-02T02:56:21;96852.75;;;5.57;81.54
46392;BME280;32098;49.448;7.904;2024-03-02T02:58:47;96851.75;;;5.58;81.40
46392;BME280;32098;49.448;7.904;2024-03-02T03:01:17;96837.34;;;5.54;81.61
46392;BME280;32098;49.448;7.904;2024-03-02T03:03:47;96845.88;;;5.56;80.84
46392;BME280;32098;49.448;7.904;2024-03-02T03:06:14;96838.84;;;5.50;81.07
46392;BME280;32098;49.448;7.904;2024-03-02T03:08:40;96840.16;;;5.59;80.43
46392;BME280;32098;49.448;7.904;2024-03-02T03:11:07;96840.16;;;5.59;80.63
46392;BME280;32098;49.448;7.904;2024-03-02T03:13:34;96829.91;;;5.51;79.96
46392;BME280;32098;49.448;7.904;2024-03-02T03:16:01;96828.84;;;5.52;79.94
46392;BME280;32098;49.448;7.904;2024-03-02T03:18:27;96849.84;;;5.65;79.68
46392;BME280;32098;49.448;7.904;2024-03-02T03:20:54;96840.31;;;5.64;78.73
46392;BME280;32098;49.448;7.904;2024-03-02T03:23:21;96842.16;;;5.64;78.64
46392;BME280;32098;49.448;7.904;2024-03-02T03:25:48;96834.72;;;5.54;78.57
46392;BME280;32098;49.448;7.904;2024-03-02T03:28:15;96839.00;;;5.55;78.95
46392;BME280;32098;49.448;7.904;2024-03-02T03:30:41;96841.03;;;5.53;79.31
46392;BME280;32098;49.448;7.904;2024-03-02T03:33:09;96838.75;;;5.57;79.61
46392;BME280;32098;49.448;7.904;2024-03-02T03:35:36;96830.91;;;5.50;78.79
46392;BME280;32098;49.448;7.904;2024-03-02T03:38:03;96827.25;;;5.51;79.04
46392;BME280;32098;49.448;7.904;2024-03-02T03:40:30;96825.72;;;5.43;80.29
46392;BME280;32098;49.448;7.904;2024-03-02T03:42:56;96833.41;;;5.45;80.41
46392;BME280;32098;49.448;7.904;2024-03-02T03:45:24;96832.31;;;5.53;79.82
46392;BME280;32098;49.448;7.904;2024-03-02T03:47:53;96829.59;;;5.41;79.75
46392;BME280;32098;49.448;7.904;2024-03-02T03:50:20;96835.03;;;5.46;79.65
46392;BME280;32098;49.448;7.904;2024-03-02T03:52:46;96804.34;;;5.27;79.40
46392;BME280;32098;49.448;7.904;2024-03-02T03:55:13;96838.41;;;5.53;79.02
46392;BME280;32098;49.448;7.904;2024-03-02T03:57:40;96835.34;;;5.56;79.26
46392;BME280;32098;49.448;7.904;2024-03-02T04:00:07;96841.19;;;5.58;79.96
46392;BME280;32098;49.448;7.904;2024-03-02T04:02:39;96843.75;;;5.65;78.80
46392;BME280;32098;49.448;7.904;2024-03-02T04:05:06;96838.13;;;5.61;78.11
46392;BME280;32098;49.448;7.904;2024-03-02T04:07:37;96833.28;;;5.58;79.37
46392;BME280;32098;49.448;7.904;2024-03-02T04:10:09;96834.53;;;5.56;79.21
46392;BME280;32098;49.448;7.904;2024-03-02T04:12:36;96842.06;;;5.70;78.60
46392;BME280;32098;49.448;7.904;2024-03-02T04:15:05;96843.31;;;5.68;78.24
46392;BME280;32098;49.448;7.904;2024-03-02T04:17:33;96839.88;;;5.67;78.05
46392;BME280;32098;49.448;7.904;2024-03-02T04:20:00;96844.56;;;5.65;78.49
46392;BME280;32098;49.448;7.904;2024-03-02T04:22:27;96842.94;;;5.64;78.47
46392;BME280;32098;49.448;7.904;2024-03-02T04:24:54;96839.28;;;5.65;78.81
46392;BME280;32098;49.448;7.904;2024-03-02T04:27:21;96832.22;;;5.59;78.46
46392;BME280;32098;49.448;7.904;2024-03-02T04:29:48;96832.47;;;5.58;78.84
46392;BME280;32098;49.448;7.904;2024-03-02T04:32:15;96846.78;;;5.68;79.17
46392;BME280;32098;49.448;7.904;2024-03-02T04:34:42;96843.69;;;5.71;78.35
46392;BME280;32098;49.448;7.904;2024-03-02T04:37:10;96839.97;;;5.79;78.06
46392;BME280;32098;49.448;7.904;2024-03-02T04:39:38;96841.78;;;5.78;78.87
46392;BME280;32098;49.448;7.904;2024-03-02T04:42:05;96835.84;;;5.83;78.14
46392;BME280;32098;49.448;7.904;2024-03-02T04:44:32;96846.31;;;5.89;78.17
46392;BME280;32098;49.448;7.904;2024-03-02T04:46:59;96840.59;;;5.92;77.88
46392;BME280;32098;49.448;7.904;2024-03-02T04:49:25;96850.63;;;6.02;76.87
46392;BME280;32098;49.448;7.904;2024-03-02T04:51:52;96845.50;;;6.07;76.58
46392;BME280;32098;49.448;7.904;2024-03-02T04:54:19;96848.13;;;6.07;76.76
46392;BME280;32098;49.448;7.904;2024-03-02T04:56:46;96847.31;;;6.06;77.24
46392;BME280;32098;49.448;7.904;2024-03-02T04:59:17;96849.75;;;6.08;76.33
46392;BME280;32098;49.448;7.904;2024-03-02T05:01:44;96849.31;;;6.11;76.52
46392;BME280;32098;49.448;7.904;2024-03-02T05:04:11;96854.09;;;6.21;75.45
46392;BME280;32098;49.448;7.904;2024-03-02T05:06:38;96867.19;;;6.27;75.21
46392;BME280;32098;49.448;7.904;2024-03-02T05:09:09;96855.06;;;6.38;74.85
46392;BME280;32098;49.448;7.904;2024-03-02T05:11:36;96876.22;;;6.38;75.21
46392;BME280;32098;49.448;7.904;2024-03-02T05:14:05;96863.88;;;6.32;75.15
46392;BME280;32098;49.448;7.904;2024-03-02T05:16:36;96855.94;;;6.32;74.88
46392;BME280;32098;49.448;7.904;2024-03-02T05:19:06;96870.13;;;6.37;74.55
46392;BME280;32098;49.448;7.904;2024-03-02T05:21:34;96866.78;;;6.42;74.25
46392;BME280;32098;49.448;7.904;2024-03-02T05:24:00;96873.84;;;6.48;73.95
46392;BME280;32098;49.448;7.904;2024-03-02T05:26:27;96863.88;;;6.32;74.49
46392;BME280;32098;49.448;7.904;2024-03-02T05:28:54;96872.91;;;6.42;74.32
46392;BME280;32098;49.448;7.904;2024-03-02T05:31:20;96877.84;;;6.39;74.28
46392;BME280;32098;49.448;7.904;2024-03-02T05:33:47;96877.06;;;6.50;73.76
46392;BME280;32098;49.448;7.904;2024-03-02T05:36:15;96877.50;;;6.47;73.61
46392;BME280;32098;49.448;7.904;2024-03-02T05:38:42;96881.69;;;6.54;73.50
46392;BME280;32098;49.448;7.904;2024-03-02T05:41:09;96875.38;;;6.55;73.82
46392;BME280;32098;49.448;7.904;2024-03-02T05:43:36;96875.59;;;6.54;73.18
46392;BME280;32098;49.448;7.904;2024-03-02T05:46:02;96885.28;;;6.60;73.36
46392;BME280;32098;49.448;7.904;2024-03-02T05:48:32;96886.59;;;6.69;72.69
46392;BME280;32098;49.448;7.904;2024-03-02T05:50:58;96887.16;;;6.71;72.43
46392;BME280;32098;49.448;7.904;2024-03-02T05:53:25;96880.69;;;6.67;71.70
46392;BME280;32098;49.448;7.904;2024-03-02T05:55:52;96884.06;;;6.74;72.44
46392;BME280;32098;49.448;7.904;2024-03-02T05:58:22;96890.50;;;6.78;72.39
46392;BME280;32098;49.448;7.904;2024-03-02T06:01:00;96889.25;;;6.81;71.81
46392;BME280;32098;49.448;7.904;2024-03-02T06:03:27;96887.88;;;6.78;71.90
46392;BME280;32098;49.448;7.904;2024-03-02T06:05:54;96886.03;;;6.79;71.94
46392;BME280;32098;49.448;7.904;2024-03-02T06:08:22;96882.25;;;6.86;71.54
46392;BME280;32098;49.448;7.904;2024-03-02T06:10:48;96893.88;;;6.85;71.59
46392;BME280;32098;49.448;7.904;2024-03-02T06:13:15;96885.94;;;6.85;71.17
46392;BME280;32098;49.448;7.904;2024-03-02T06:15:42;96889.69;;;6.78;71.70
46392;BME280;32098;49.448;7.904;2024-03-02T06:18:09;96888.31;;;6.75;72.08
46392;BME280;32098;49.448;7.904;2024-03-02T06:20:35;96896.25;;;6.75;71.77
46392;BME280;32098;49.448;7.904;2024-03-02T06:23:04;96902.66;;;6.67;71.61
46392;BME280;32098;49.448;7.904;2024-03-02T06:25:30;96898.44;;;6.78;71.48
46392;BME280;32098;49.448;7.904;2024-03-02T06:27:57;96896.69;;;6.72;71.33
46392;BME280;32098;49.448;7.904;2024-03-02T06:30:23;96901.97;;;6.72;72.14
46392;BME280;32098;49.448;7.904;2024-03-02T06:32:50;96904.75;;;6.77;71.61
46392;BME280;32098;49.448;7.904;2024-03-02T06:35:17;96904.19;;;6.75;71.77
46392;BME280;32098;49.448;7.904;2024-03-02T06:37:44;96907.41;;;6.77;71.49
46392;BME280;32098;49.448;7.904;2024-03-02T06:40:10;96916.03;;;6.84;71.55
46392;BME280;32098;49.448;7.904;2024-03-02T06:42:37;96922.97;;;6.85;71.41
46392;BME280;32098;49.448;7.904;2024-03-02T06:45:04;96910.44;;;6.92;70.99
46392;BME280;32098;49.448;7.904;2024-03-02T06:47:30;96910.31;;;6.87;71.00
46392;BME280;32098;49.448;7.904;2024-03-02T06:49:57;96913.53;;;6.89;71.00
46392;BME280;32098;49.448;7.904;2024-03-02T06:52:25;96913.91;;;6.93;70.87
46392;BME280;32098;49.448;7.904;2024-03-02T06:54:51;96916.19;;;6.89;70.94
46392;BME280;32098;49.448;7.904;2024-03-02T06:57:18;96921.97;;;6.98;70.57
46392;BME280;32098;49.448;7.904;2024-03-02T06:59:47;96917.94;;;7.07;69.78
46392;BME280;32098;49.448;7.904;2024-03-02T07:02:16;96923.59;;;7.10;69.39
46392;BME280;32098;49.448;7.904;2024-03-02T07:04:43;96928.31;;;7.08;70.04
46392;BME280;32098;49.448;7.904;2024-03-02T07:07:11;96926.00;;;7.12;69.88
46392;BME280;32098;49.448;7.904;2024-03-02T07:09:38;96928.22;;;7.15;69.62
46392;BME280;32098;49.448;7.904;2024-03-02T07:12:05;96928.59;;;7.18;68.93
46392;BME280;32098;49.448;7.904;2024-03-02T07:14:31;96927.91;;;7.23;69.18
46392;BME280;32098;49.448;7.904;2024-03-02T07:17:24;96933.47;;;7.33;69.44
46392;BME280;32098;49.448;7.904;2024-03-02T07:19:51;96938.53;;;7.34;69.01
46392;BME280;32098;49.448;7.904;2024-03-02T07:22:18;96942.69;;;7.42;68.62
46392;BME280;32098;49.448;7.904;2024-03-02T07:24:44;96944.66;;;7.47;69.18
46392;BME280;32098;49.448;7.904;2024-03-02T07:27:15;96938.91;;;7.50;69.56
46392;BME280;32098;49.448;7.904;2024-03-02T07:29:43;96937.19;;;7.55;69.01
46392;BME280;32098;49.448;7.904;2024-03-02T07:32:10;96940.75;;;7.61;69.72
46392;BME280;32098;49.448;7.904;2024-03-02T07:34:37;96937.88;;;7.62;69.00
46392;BME280;32098;49.448;7.904;2024-03-02T07:37:06;96939.50;;;7.63;68.83
46392;BME280;32098;49.448;7.904;2024-03-02T07:39:33;96936.16;;;7.68;69.17
46392;BME280;32098;49.448;7.904;2024-03-02T07:42:00;96948.25;;;7.75;69.27
46392;BME280;32098;49.448;7.904;2024-03-02T07:44:27;96935.13;;;7.80;69.37
46392;BME280;32098;49.448;7.904;2024-03-02T07:46:53;96944.56;;;7.88;68.88
46392;BME280;32098;49.448;7.904;2024-03-02T07:49:20;96943.06;;;7.92;69.06
46392;BME280;32098;49.448;7.904;2024-03-02T07:51:47;96940.53;;;7.97;68.75
46392;BME280;32098;49.448;7.904;2024-03-02T07:54:14;96938.59;;;8.04;68.87
46392;BME280;32098;49.448;7.904;2024-03-02T07:56:41;96940.84;;;8.12;68.83
46392;BME280;32098;49.448;7.904;2024-03-02T07:59:08;96946.16;;;8.12;68.52
46392;BME280;32098;49.448;7.904;2024-03-02T08:01:35;96940.66;;;8.14;67.98
46392;BME280;32098;49.448;7.904;2024-03-02T08:04:02;96938.31;;;8.17;67.08
46392;BME280;32098;49.448;7.904;2024-03-02T08:06:30;96940.84;;;8.12;66.70
46392;BME280;32098;49.448;7.904;2024-03-02T08:09:00;96942.72;;;8.12;66.10
46392;BME280;32098;49.448;7.904;2024-03-02T08:11:27;96942.03;;;8.16;65.68
46392;BME280;32098;49.448;7.904;2024-03-02T08:13:55;96940.03;;;8.23;65.90
46392;BME280;32098;49.448;7.904;2024-03-02T08:16:25;96949.94;;;8.28;65.21
46392;BME280;32098;49.448;7.904;2024-03-02T08:18:52;96944.03;;;8.37;64.99
46392;BME280;32098;49.448;7.904;2024-03-02T08:21:19;96947.84;;;8.41;64.79
46392;BME280;32098;49.448;7.904;2024-03-02T08:23:46;96948.06;;;8.51;65.16
46392;BME280;32098;49.448;7.904;2024-03-02T08:26:12;96934.41;;;8.59;65.06
46392;BME280;32098;49.448;7.904;2024-03-02T08:28:39;96934.25;;;8.78;64.76
46392;BME280;32098;49.448;7.904;2024-03-02T08:31:09;96938.06;;;8.82;63.37
46392;BME280;32098;49.448;7.904;2024-03-02T08:33:36;96939.13;;;8.97;63.54
46392;BME280;32098;49.448;7.904;2024-03-02T08:36:04;96932.28;;;9.13;63.74
46392;BME280;32098;49.448;7.904;2024-03-02T08:38:31;96925.28;;;9.23;63.03
46392;BME280;32098;49.448;7.904;2024-03-02T08:40:59;96935.09;;;9.40;62.78
46392;BME280;32098;49.448;7.904;2024-03-02T08:43:26;96930.84;;;9.39;61.36
46392;BME280;32098;49.448;7.904;2024-03-02T08:45:53;96934.00;;;9.52;61.44
46392;BME280;32098;49.448;7.904;2024-03-02T08:48:20;96933.19;;;9.68;61.89
46392;BME280;32098;49.448;7.904;2024-03-02T08:50:47;96924.09;;;9.81;61.47
46392;BME280;32098;49.448;7.904;2024-03-02T08:53:14;96926.25;;;9.84;60.83
46392;BME280;32098;49.448;7.904;2024-03-02T08:55:47;96908.03;;;9.92;60.68
46392;BME280;32098;49.448;7.904;2024-03-02T08:58:14;96921.47;;;10.03;59.84
46392;BME280;32098;49.448;7.904;2024-03-02T09:00:41;96931.13;;;10.09;59.86
46392;BME280;32098;49.448;7.904;2024-03-02T09:03:08;96927.50;;;10.15;60.16
46392;BME280;32098;49.448;7.904;2024-03-02T09:05:34;96926.91;;;10.13;59.04
46392;BME280;32098;49.448;7.904;2024-03-02T09:08:01;96935.22;;;10.16;58.66
46392;BME280;32098;49.448;7.904;2024-03-02T09:10:29;96933.94;;;10.19;62.76
46392;BME280;32098;49.448;7.904;2024-03-02T09:12:56;96935.91;;;10.50;67.31
46392;BME280;32098;49.448;7.904;2024-03-02T09:15:23;96932.50;;;10.71;66.72
46392;BME280;32098;49.448;7.904;2024-03-02T09:17:50;96940.16;;;10.89;64.70
46392;BME280;32098;49.448;7.904;2024-03-02T09:20:16;96941.63;;;11.02;64.22
46392;BME280;32098;49.448;7.904;2024-03-02T09:22:43;96943.13;;;11.19;62.92
46392;BME280;32098;49.448;7.904;2024-03-02T09:25:09;96929.41;;;11.06;57.61
46392;BME280;32098;49.448;7.904;2024-03-02T09:27:37;96930.16;;;11.01;57.22
46392;BME280;32098;49.448;7.904;2024-03-02T09:30:08;96930.53;;;10.88;56.57
46392;BME280;32098;49.448;7.904;2024-03-02T09:32:37;96926.53;;;10.86;57.29
46392;BME280;32098;49.448;7.904;2024-03-02T09:35:04;96924.56;;;10.76;56.59
46392;BME280;32098;49.448;7.904;2024-03-02T09:37:31;96929.81;;;10.71;56.77
46392;BME280;32098;49.448;7.904;2024-03-02T09:39:57;96925.38;;;10.77;57.29
46392;BME280;32098;49.448;7.904;2024-03-02T09:42:24;96929.94;;;10.81;56.87
46392;BME280;32098;49.448;7.904;2024-03-02T09:44:52;96920.72;;;10.67;55.66
46392;BME280;32098;49.448;7.904;2024-03-02T09:47:19;96918.84;;;10.68;56.08
46392;BME280;32098;49.448;7.904;2024-03-02T09:49:47;96918.13;;;10.72;56.00
46392;BME280;32098;49.448;7.904;2024-03-02T09:52:14;96919.25;;;10.76;56.24
46392;BME280;32098;49.448;7.904;2024-03-02T09:54:41;96922.28;;;10.85;56.18
46392;BME280;32098;49.448;7.904;2024-03-02T09:57:08;96916.78;;;10.70;54.94
46392;BME280;32098;49.448;7.904;2024-03-02T09:59:35;96914.72;;;10.77;55.50
46392;BME280;32098;49.448;7.904;2024-03-02T10:02:03;96920.34;;;10.80;54.93
46392;BME280;32098;49.448;7.904;2024-03-02T10:04:30;96915.53;;;10.77;54.19
46392;BME280;32098;49.448;7.904;2024-03-02T10:07:18;96917.63;;;10.75;54.44
46392;BME280;32098;49.448;7.904;2024-03-02T10:09:46;96912.22;;;10.92;54.64
46392;BME280;32098;49.448;7.904;2024-03-02T10:12:15;96913.69;;;11.04;54.63
46392;BME280;32098;49.448;7.904;2024-03-02T10:14:42;96909.44;;;11.08;54.10
46392;BME280;32098;49.448;7.904;2024-03-02T10:17:12;96911.91;;;10.88;52.60
46392;BME280;32098;49.448;7.904;2024-03-02T10:19:39;96904.88;;;10.77;52.42
46392;BME280;32098;49.448;7.904;2024-03-02T10:22:08;96905.88;;;10.71;52.88
46392;BME280;32098;49.448;7.904;2024-03-02T10:24:40;96900.06;;;10.74;52.84
46392;BME280;32098;49.448;7.904;2024-03-02T10:27:17;96892.94;;;10.80;53.42
46392;BME280;32098;49.448;7.904;2024-03-02T10:29:48;96892.19;;;10.84;53.84
46392;BME280;32098;49.448;7.904;2024-03-02T10:32:15;96897.66;;;10.99;54.39
46392;BME280;32098;49.448;7.904;2024-03-02T10:34:44;96899.19;;;10.95;54.17
46392;BME280;32098;49.448;7.904;2024-03-02T10:37:11;96900.66;;;10.81;53.38
46392;BME280;32098;49.448;7.904;2024-03-02T10:39:39;96875.03;;;10.75;53.30
46392;BME280;32098;49.448;7.904;2024-03-02T10:42:07;96891.31;;;10.79;53.40
46392;BME280;32098;49.448;7.904;2024-03-02T10:44:34;96881.28;;;10.86;53.80
46392;BME280;32098;49.448;7.904;2024-03-02T10:47:05;96889.72;;;11.04;53.50
46392;BME280;32098;49.448;7.904;2024-03-02T10:49:32;96889.00;;;11.14;52.79
46392;BME280;32098;49.448;7.904;2024-03-02T10:51:59;96884.56;;;11.25;52.68
46392;BME280;32098;49.448;7.904;2024-03-02T10:54:27;96869.81;;;11.44;53.16
46392;BME280;32098;49.448;7.904;2024-03-02T10:56:59;96874.47;;;11.63;53.09
46392;BME280;32098;49.448;7.904;2024-03-02T10:59:34;96870.56;;;11.76;51.92
46392;BME280;32098;49.448;7.904;2024-03-02T11:02:02;96870.34;;;11.82;51.28
46392;BME280;32098;49.448;7.904;2024-03-02T11:04:32;96863.22;;;11.98;50.81
46392;BME280;32098;49.448;7.904;2024-03-02T11:07:02;96865.50;;;12.16;51.04
46392;BME280;32098;49.448;7.904;2024-03-02T11:09:33;96857.59;;;12.41;51.55
46392;BME280;32098;49.448;7.904;2024-03-02T11:12:09;96864.25;;;12.39;50.55
46392;BME280;32098;49.448;7.904;2024-03-02T11:14:42;96859.16;;;12.27;51.14
46392;BME280;32098;49.448;7.904;2024-03-02T11:17:13;96859.19;;;12.37;51.10
46392;BME280;32098;49.448;7.904;2024-03-02T11:19:43;96836.31;;;12.62;51.08
46392;BME280;32098;49.448;7.904;2024-03-02T11:22:10;96835.56;;;13.01;49.65
46392;BME280;32098;49.448;7.904;2024-03-02T11:24:38;96832.06;;;12.81;50.14
46392;BME280;32098;49.448;7.904;2024-03-02T11:27:06;96845.19;;;13.07;50.02
46392;BME280;32098;49.448;7.904;2024-03-02T11:32:21;96829.69;;;13.70;48.25
46392;BME280;32098;49.448;7.904;2024-03-02T11:34:49;96831.03;;;13.72;48.85
46392;BME280;32098;49.448;7.904;2024-03-02T11:37:19;96829.09;;;13.88;47.86
46392;BME280;32098;49.448;7.904;2024-03-02T11:39:50;96827.72;;;14.01;48.24
46392;BME280;32098;49.448;7.904;2024-03-02T11:42:17;96806.34;;;13.96;47.76
46392;BME280;32098;49.448;7.904;2024-03-02T11:44:46;96816.50;;;14.04;47.09
46392;BME280;32098;49.448;7.904;2024-03-02T11:47:14;96813.28;;;14.07;47.22
46392;BME280;32098;49.448;7.904;2024-03-02T11:49:43;96810.19;;;13.59;46.99
46392;BME280;32098;49.448;7.904;2024-03-02T11:52:13;96817.69;;;13.52;47.75
46392;BME280;32098;49.448;7.904;2024-03-02T11:54:43;96809.69;;;13.52;47.87
46392;BME280;32098;49.448;7.904;2024-03-02T11:57:14;96817.97;;;13.31;47.89
46392;BME280;32098;49.448;7.904;2024-03-02T11:59:43;96807.53;;;13.54;47.94
46392;BME280;32098;49.448;7.904;2024-03-02T12:02:18;96798.97;;;13.57;48.00
46392;BME280;32098;49.448;7.904;2024-03-02T12:04:46;96803.81;;;13.45;48.56
46392;BME280;32098;49.448;7.904;2024-03-02T12:07:19;96805.38;;;13.16;48.19
46392;BME280;32098;49.448;7.904;2024-03-02T12:09:47;96805.94;;;13.33;48.50
46392;BME280;32098;49.448;7.904;2024-03-02T12:12:14;96797.88;;;13.28;48.45
46392;BME280;32098;49.448;7.904;2024-03-02T12:14:51;96794.44;;;13.23;48.15
46392;BME280;32098;49.448;7.904;2024-03-02T12:17:19;96792.31;;;13.35;49.32
46392;BME280;32098;49.448;7.904;2024-03-02T12:19:46;96794.19;;;13.39;48.67
46392;BME280;32098;49.448;7.904;2024-03-02T12:22:12;96791.78;;;13.38;47.71
46392;BME280;32098;49.448;7.904;2024-03-02T12:24:39;96802.72;;;13.41;48.05
46392;BME280;32098;49.448;7.904;2024-03-02T12:27:06;96790.97;;;13.42;48.20
46392;BME280;32098;49.448;7.904;2024-03-02T12:29:33;96763.19;;;13.33;48.58
46392;BME280;32098;49.448;7.904;2024-03-02T12:32:00;96782.34;;;13.65;48.59
46392;BME280;32098;49.448;7.904;2024-03-02T12:34:29;96787.75;;;13.60;48.19
46392;BME280;32098;49.448;7.904;2024-03-02T12:36:55;96786.63;;;13.76;48.74
46392;BME280;32098;49.448;7.904;2024-03-02T12:39:22;96771.69;;;13.60;47.69
46392;BME280;32098;49.448;7.904;2024-03-02T12:41:50;96777.34;;;13.39;48.13
46392;BME280;32098;49.448;7.904;2024-03-02T12:44:17;96775.75;;;13.33;48.88
46392;BME280;32098;49.448;7.904;2024-03-02T12:46:45;96773.59;;;13.30;48.30
46392;BME280;32098;49.448;7.904;2024-03-02T12:49:14;96777.09;;;13.35;48.93
46392;BME280;32098;49.448;7.904;2024-03-02T12:51:44;96773.84;;;13.03;48.37
46392;BME280;32098;49.448;7.904;2024-03-02T12:54:18;96779.19;;;12.83;49.12
46392;BME280;32098;49.448;7.904;2024-03-02T12:56:48;96764.25;;;13.07;48.88
46392;BME280;32098;49.448;7.904;2024-03-02T12:59:18;96770.13;;;13.24;48.55
46392;BME280;32098;49.448;7.904;2024-03-02T13:01:54;96773.84;;;13.43;48.07
46392;BME280;32098;49.448;7.904;2024-03-02T13:04:22;96766.38;;;13.45;49.03
46392;BME280;32098;49.448;7.904;2024-03-02T13:06:50;96754.88;;;13.45;48.04
46392;BME280;32098;49.448;7.904;2024-03-02T13:09:18;96759.69;;;13.48;48.41
46392;BME280;32098;49.448;7.904;2024-03-02T13:11:44;96759.97;;;13.21;48.31
46392;BME280;32098;49.448;7.904;2024-03-02T13:14:11;96766.66;;;13.13;48.64
46392;BME280;32098;49.448;7.904;2024-03-02T13:16:39;96758.09;;;13.27;48.92